createdAt,value
2022-10-14T00:04:02.173Z,18.58
2022-10-14T00:09:04.419Z,19.17
2022-10-14T00:14:07.179Z,17.77
2022-10-14T00:19:06.257Z,18.30
2022-10-14T00:24:06.203Z,18.10
2022-10-14T00:29:08.510Z,18.95
2022-10-14T00:34:07.302Z,18.05
2022-10-14T00:39:06.463Z,17.63
2022-10-14T00:44:07.423Z,19.08
2022-10-14T00:49:13.715Z,17.73
2022-10-14T00:54:15.214Z,16.88
2022-10-14T00:59:14.998Z,18.58
2022-10-14T01:04:13.728Z,19.08
2022-10-14T01:09:24.518Z,19.63
2022-10-14T01:14:44.929Z,18.30
2022-10-14T01:20:11.662Z,18.73
2022-10-14T01:25:24.836Z,20.67
2022-10-14T01:30:25.409Z,17.30
2022-10-14T01:35:46.199Z,18.30
2022-10-14T01:40:51.316Z,18.55
2022-10-14T01:45:54.508Z,18.35
2022-10-14T01:50:57.205Z,17.33
2022-10-14T01:55:57.823Z,18.63
2022-10-14T02:00:57.716Z,19.00
2022-10-14T02:06:03.608Z,17.60
2022-10-14T02:11:18.422Z,19.13
2022-10-14T02:16:40.572Z,19.58
2022-10-14T02:21:58.224Z,17.30
2022-10-14T02:27:01.757Z,18.88
2022-10-14T02:32:03.011Z,18.55
2022-10-14T02:37:02.814Z,18.90
2022-10-14T02:42:04.542Z,18.90
2022-10-14T02:47:06.196Z,18.60
2022-10-14T02:52:05.186Z,19.75
2022-10-14T02:57:03.877Z,19.33
2022-10-14T03:02:02.996Z,19.98
2022-10-14T03:07:02.915Z,20.98
2022-10-14T03:12:05.718Z,21.30
2022-10-14T03:17:05.006Z,19.15
2022-10-14T03:22:05.679Z,19.00
2022-10-14T03:27:05.527Z,18.95
2022-10-14T03:32:04.970Z,18.60
2022-10-14T03:37:23.731Z,19.85
2022-10-14T03:42:26.034Z,19.92
2022-10-14T03:47:24.952Z,21.77
2022-10-14T03:52:24.007Z,20.02
2022-10-14T03:57:34.560Z,21.60
2022-10-14T04:02:33.809Z,22.25
2022-10-14T04:07:32.661Z,20.80
2022-10-14T04:12:32.428Z,20.73
2022-10-14T04:17:35.489Z,21.02
2022-10-14T04:22:41.214Z,21.60
2022-10-14T04:27:40.310Z,20.70
2022-10-14T04:32:40.985Z,21.45
2022-10-14T04:37:40.351Z,20.65
2022-10-14T04:42:43.750Z,21.88
2022-10-14T04:47:52.504Z,21.30
2022-10-14T04:52:54.822Z,10.57
2022-10-14T04:57:54.939Z,15.02
2022-10-14T05:02:53.772Z,17.20
2022-10-14T05:07:59.069Z,21.13
2022-10-14T05:13:07.545Z,18.23
2022-10-14T05:18:13.203Z,18.65
2022-10-14T05:23:34.391Z,20.63
2022-10-14T05:28:34.084Z,20.88
2022-10-14T05:33:33.125Z,21.50
2022-10-14T05:38:34.025Z,20.38
2022-10-14T05:43:33.564Z,22.08
2022-10-14T05:48:34.957Z,21.13
2022-10-14T05:53:34.218Z,20.38
2022-10-14T05:58:36.901Z,21.77
2022-10-14T06:03:36.907Z,20.08
2022-10-14T06:08:36.506Z,21.00
2022-10-14T06:13:35.716Z,20.95
2022-10-14T06:18:36.000Z,23.00
2022-10-14T06:23:34.878Z,21.33
2022-10-14T06:28:33.608Z,21.88
2022-10-14T06:33:33.593Z,22.42
2022-10-14T06:38:33.111Z,22.38
2022-10-14T06:43:31.850Z,21.63
2022-10-14T06:48:30.763Z,20.40
2022-10-14T06:53:29.944Z,22.42
2022-10-14T06:58:29.580Z,20.75
2022-10-14T07:03:28.588Z,20.75
2022-10-14T07:08:27.204Z,24.25
2022-10-14T07:13:26.210Z,21.80
2022-10-14T07:18:24.813Z,20.63
2022-10-14T07:23:23.534Z,22.75
2022-10-14T07:28:22.200Z,22.92
2022-10-14T07:33:20.861Z,23.48
2022-10-14T07:38:19.867Z,25.05
2022-10-14T07:43:18.596Z,24.38
2022-10-14T07:48:27.139Z,22.80
2022-10-14T07:53:31.833Z,21.88
2022-10-14T07:58:31.395Z,22.80
2022-10-14T08:03:30.127Z,22.35
2022-10-14T08:08:29.555Z,23.27
2022-10-14T08:13:29.652Z,23.67
2022-10-14T08:18:28.675Z,23.50
2022-10-14T08:23:27.515Z,22.92
2022-10-14T08:28:26.198Z,23.58
2022-10-14T08:33:24.999Z,22.33
2022-10-14T08:38:25.310Z,21.45
2022-10-14T08:43:35.864Z,24.27
2022-10-14T08:48:35.337Z,22.63
2022-10-14T08:53:50.826Z,23.30
2022-10-14T08:58:51.954Z,23.63
2022-10-14T09:03:58.264Z,24.13
2022-10-14T09:09:35.507Z,24.05
2022-10-14T09:14:37.509Z,25.73
2022-10-14T09:19:44.412Z,21.33
2022-10-14T09:24:48.545Z,21.85
2022-10-14T09:29:51.791Z,22.80
2022-10-14T09:34:52.350Z,20.20
2022-10-14T09:39:53.313Z,21.08
2022-10-14T09:45:10.504Z,18.98
2022-10-14T09:50:30.391Z,22.20
2022-10-14T09:55:30.523Z,22.25
2022-10-14T10:00:31.268Z,22.13
2022-10-14T10:05:33.277Z,21.30
2022-10-14T10:10:34.869Z,19.17
2022-10-14T10:15:33.579Z,16.35
2022-10-14T10:20:33.277Z,18.65
2022-10-14T10:25:32.122Z,18.75
2022-10-14T10:30:39.043Z,18.20
2022-10-14T10:41:36.314Z,18.55
2022-10-14T10:46:51.613Z,17.40
2022-10-14T10:51:58.344Z,16.00
2022-10-14T10:57:08.509Z,16.75
2022-10-14T11:02:45.930Z,16.05
2022-10-14T11:08:16.685Z,16.98
2022-10-14T11:13:33.076Z,15.75
2022-10-14T11:18:45.411Z,14.52
2022-10-14T11:24:09.316Z,3.45
2022-10-14T11:29:22.985Z,2.53
2022-10-14T11:34:43.472Z,2.53
2022-10-14T11:39:54.346Z,2.95
2022-10-14T11:45:06.440Z,2.00
2022-10-14T11:50:17.140Z,1.92
2022-10-14T11:55:23.866Z,3.95
2022-10-14T12:05:36.455Z,4.80
2022-10-14T12:10:44.525Z,3.97
2022-10-14T12:15:49.806Z,4.57
2022-10-14T12:20:59.364Z,4.25
2022-10-14T12:26:07.053Z,4.20
2022-10-14T12:36:32.004Z,7.97
2022-10-14T12:41:36.877Z,7.65
2022-10-14T12:46:44.490Z,8.73
2022-10-14T12:52:05.810Z,9.00
2022-10-14T12:57:22.398Z,11.00
2022-10-14T13:02:43.313Z,10.77
2022-10-14T13:07:47.103Z,13.32
2022-10-14T13:12:46.528Z,13.98
2022-10-14T13:17:46.919Z,14.93
2022-10-14T13:22:46.290Z,15.43
2022-10-14T13:28:21.603Z,15.52
2022-10-14T13:33:47.162Z,17.02
2022-10-14T13:38:54.095Z,17.13
2022-10-14T13:43:55.757Z,16.60
2022-10-14T13:49:00.448Z,16.90
2022-10-14T13:54:26.528Z,16.38
2022-10-14T13:59:44.039Z,16.48
2022-10-14T14:05:00.550Z,16.48
2022-10-14T14:10:04.109Z,19.85
2022-10-14T14:15:04.201Z,17.55
2022-10-14T14:20:10.252Z,18.70
2022-10-14T14:25:37.003Z,19.15
2022-10-14T14:30:51.904Z,18.77
2022-10-14T14:35:58.554Z,18.63
2022-10-14T14:41:06.269Z,18.52
2022-10-14T14:46:06.011Z,18.13
2022-10-14T14:51:05.114Z,17.88
2022-10-14T14:56:14.354Z,19.77
2022-10-14T15:01:22.632Z,17.38
2022-10-14T15:06:25.324Z,14.63
2022-10-14T15:11:24.305Z,15.93
2022-10-14T15:16:36.940Z,15.02
2022-10-14T15:21:36.160Z,14.32
2022-10-14T15:26:36.064Z,13.45
2022-10-14T15:31:36.399Z,14.73
2022-10-14T15:36:35.155Z,13.73
2022-10-14T15:41:33.762Z,15.48
2022-10-14T15:46:54.634Z,16.38
2022-10-14T15:51:53.539Z,17.77
2022-10-14T15:56:57.721Z,16.38
2022-10-14T16:01:57.240Z,17.02
2022-10-14T16:06:57.314Z,15.00
2022-10-14T16:11:59.229Z,16.75
2022-10-14T16:16:57.996Z,16.08
2022-10-14T16:21:56.941Z,15.07
2022-10-14T16:26:55.747Z,15.70
2022-10-14T16:31:54.623Z,16.00
2022-10-14T16:36:53.676Z,15.25
2022-10-14T16:41:52.350Z,15.45
2022-10-14T16:47:11.084Z,15.82
2022-10-14T16:52:10.303Z,17.00
2022-10-14T16:57:10.713Z,17.67
2022-10-14T17:02:14.599Z,19.58
2022-10-14T17:07:14.853Z,18.65
2022-10-14T17:12:14.110Z,21.38
2022-10-14T17:17:13.189Z,21.92
2022-10-14T17:22:12.780Z,22.38
2022-10-14T17:27:11.700Z,23.85
2022-10-14T17:32:10.345Z,22.55
2022-10-14T17:37:11.997Z,21.25
2022-10-14T17:42:10.734Z,21.88
2022-10-14T17:47:09.467Z,18.88
2022-10-14T17:52:08.280Z,18.70
2022-10-14T17:57:06.965Z,19.80
2022-10-14T18:02:09.632Z,19.25
2022-10-14T18:07:12.064Z,17.05
2022-10-14T18:12:10.856Z,17.02
2022-10-14T18:17:13.129Z,15.30
2022-10-14T18:22:12.204Z,15.73
2022-10-14T18:27:11.804Z,14.27
2022-10-14T18:32:10.682Z,14.27
2022-10-14T18:37:09.653Z,14.35
2022-10-14T18:42:08.321Z,13.18
2022-10-14T18:47:07.529Z,13.75
2022-10-14T18:52:06.323Z,14.30
2022-10-14T18:57:04.953Z,13.35
2022-10-14T19:02:03.840Z,12.57
2022-10-14T19:07:02.501Z,11.55
2022-10-14T19:12:21.534Z,12.02
2022-10-14T19:17:20.490Z,12.55
2022-10-14T19:22:19.200Z,14.13
2022-10-14T19:27:17.968Z,12.63
2022-10-14T19:32:16.638Z,13.85
2022-10-14T19:37:15.468Z,12.55
2022-10-14T19:42:14.336Z,6.43
2022-10-14T19:47:13.001Z,12.00
2022-10-14T19:52:12.386Z,11.30
2022-10-14T19:57:11.231Z,12.52
2022-10-14T20:02:10.230Z,10.93
2022-10-14T20:07:08.984Z,11.02
2022-10-14T20:12:07.669Z,11.50
2022-10-14T20:17:06.471Z,11.70
2022-10-14T20:22:05.289Z,12.45
2022-10-14T20:27:06.650Z,12.15
2022-10-14T20:32:09.079Z,11.20
2022-10-14T20:37:07.925Z,12.40
2022-10-14T20:42:08.414Z,11.80
2022-10-14T20:47:08.400Z,11.52
2022-10-14T20:52:09.576Z,11.27
2022-10-14T20:57:09.332Z,10.18
2022-10-14T21:02:34.615Z,9.25
2022-10-14T21:07:33.492Z,10.18
2022-10-14T21:12:32.125Z,9.73
2022-10-14T21:17:30.857Z,10.15
2022-10-14T21:22:29.532Z,9.30
2022-10-14T21:27:28.374Z,11.18
2022-10-14T21:32:27.056Z,9.70
2022-10-14T21:37:25.861Z,9.80
2022-10-14T21:42:25.159Z,9.90
2022-10-14T21:47:24.169Z,11.60
2022-10-14T21:52:23.176Z,9.40
2022-10-14T21:57:22.343Z,9.07
2022-10-14T22:02:22.684Z,10.07
2022-10-14T22:07:21.918Z,8.93
2022-10-14T22:12:21.644Z,10.52
2022-10-14T22:17:26.565Z,9.75
2022-10-14T22:22:27.995Z,9.00
2022-10-14T22:27:26.829Z,9.05
2022-10-14T22:32:25.479Z,8.25
2022-10-14T22:37:24.805Z,8.13
2022-10-14T22:42:23.902Z,7.90
2022-10-14T22:47:22.802Z,7.80
2022-10-14T22:52:21.936Z,7.40
2022-10-14T22:57:21.166Z,7.38
2022-10-14T23:02:20.119Z,7.40
2022-10-14T23:07:19.077Z,8.52
2022-10-14T23:12:18.136Z,8.05
2022-10-14T23:17:17.011Z,9.07
2022-10-14T23:22:15.773Z,7.75
2022-10-14T23:27:14.459Z,9.90
2022-10-14T23:32:13.176Z,9.05
2022-10-14T23:37:11.985Z,8.10
2022-10-14T23:42:10.631Z,8.63
2022-10-14T23:47:09.451Z,8.48
2022-10-14T23:52:08.168Z,8.32
2022-10-14T23:57:07.087Z,8.00
